TimeEST,TemperatureF,Dew PointF,Humidity,Sea Level PressureIn,VisibilityMPH,Wind Direction,Wind SpeedMPH,Gust SpeedMPH,PrecipitationIn,Events,Conditions,WindDirDegrees,DateUTC
12:53 AM,12.9,3.9,67,30.06,10.0,West,9.2,-,N/A,,Scattered Clouds,260,2014-01-18 05:53:00
1:53 AM,12.0,5.0,73,30.05,10.0,WSW,8.1,-,N/A,,Scattered Clouds,250,2014-01-18 06:53:00
2:53 AM,12.0,5.0,73,30.05,10.0,SSW,5.8,-,N/A,,Mostly Cloudy,210,2014-01-18 07:53:00
3:53 AM,12.9,6.1,74,30.05,10.0,SW,9.2,-,N/A,,Overcast,220,2014-01-18 08:53:00
4:53 AM,12.9,6.1,74,30.05,10.0,SW,8.1,-,N/A,,Overcast,230,2014-01-18 09:53:00
5:53 AM,14.0,7.0,74,30.04,10.0,WSW,9.2,-,N/A,,Overcast,240,2014-01-18 10:53:00
6:53 AM,14.0,8.1,77,30.05,10.0,WSW,6.9,-,N/A,,Overcast,250,2014-01-18 11:53:00
7:53 AM,15.1,8.1,74,30.05,10.0,WSW,6.9,-,N/A,,Overcast,240,2014-01-18 12:53:00
8:46 AM,15.1,9.0,77,30.02,5.0,SW,8.1,-,0.00,Snow,Light Snow,230,2014-01-18 13:46:00
8:53 AM,15.1,9.0,77,30.07,5.0,SW,6.9,-,0.00,Snow,Light Snow,220,2014-01-18 13:53:00
9:26 AM,15.1,9.0,77,30.04,2.5,SW,10.4,-,0.00,Snow,Light Snow,220,2014-01-18 14:26:00
9:33 AM,16.0,9.0,74,30.04,1.8,SW,8.1,-,0.00,Snow,Light Snow,220,2014-01-18 14:33:00
9:49 AM,15.8,10.4,79,30.04,2.0,SW,9.2,-,0.00,Snow,Light Snow,220,2014-01-18 14:49:00
9:53 AM,16.0,10.0,77,30.09,1.8,SW,10.4,-,0.00,Snow,Light Snow,230,2014-01-18 14:53:00
10:25 AM,17.1,10.9,77,30.05,2.0,SW,10.4,-,0.00,Snow,Light Snow,220,2014-01-18 15:25:00
10:37 AM,17.1,10.9,77,30.05,2.5,SW,10.4,-,0.00,Snow,Light Snow,220,2014-01-18 15:37:00
10:53 AM,18.0,10.9,74,30.09,3.0,SW,9.2,-,0.00,Snow,Light Snow,230,2014-01-18 15:53:00
11:53 AM,19.0,10.9,71,30.07,5.0,SW,11.5,-,0.00,Snow,Light Snow,230,2014-01-18 16:53:00
12:53 PM,19.9,10.9,68,30.03,10.0,SW,10.4,-,0.00,,Overcast,220,2014-01-18 17:53:00
1:53 PM,21.9,12.9,68,30.00,8.0,SW,9.2,-,0.00,Snow,Light Snow,220,2014-01-18 18:53:00
2:53 PM,21.9,12.9,68,29.99,8.0,South,10.4,-,0.00,,Overcast,180,2014-01-18 19:53:00
3:51 PM,21.2,12.2,68,29.92,10.0,SSE,9.2,-,N/A,,Scattered Clouds,150,2014-01-18 20:51:00
3:53 PM,21.9,12.0,66,29.96,10.0,SE,10.4,-,N/A,,Scattered Clouds,140,2014-01-18 20:53:00
4:35 PM,23.0,12.9,65,29.92,10.0,SSE,9.2,-,N/A,,Mostly Cloudy,160,2014-01-18 21:35:00
4:53 PM,21.9,12.9,68,29.97,10.0,SSE,11.5,-,N/A,,Overcast,160,2014-01-18 21:53:00
5:53 PM,21.9,12.9,68,29.96,10.0,SSE,9.2,-,N/A,,Overcast,150,2014-01-18 22:53:00
6:01 PM,21.9,14.0,72,29.92,10.0,SSE,10.4,-,N/A,,Overcast,160,2014-01-18 23:01:00
6:53 PM,21.9,16.0,78,29.93,3.0,SE,10.4,-,0.00,Snow,Light Snow,140,2014-01-18 23:53:00
7:02 PM,21.9,16.0,78,29.89,2.0,SSE,9.2,-,0.00,Snow,Light Snow,150,2014-01-19 00:02:00
7:16 PM,21.0,16.0,81,29.89,1.5,SSE,9.2,-,0.00,Snow,Light Snow,150,2014-01-19 00:16:00
7:48 PM,21.2,17.6,86,29.89,1.0,SSE,6.9,-,0.00,Snow,Light Snow,160,2014-01-19 00:48:00
7:49 PM,21.0,18.0,88,29.94,1.0,SSE,6.9,-,0.00,Snow,Light Snow,160,2014-01-19 00:49:00
8:12 PM,21.0,18.0,88,29.88,0.8,SE,8.1,-,0.01,Snow,Light Snow,140,2014-01-19 01:12:00
8:24 PM,21.0,18.0,88,29.88,1.0,SE,6.9,-,0.02,Snow,Light Snow,140,2014-01-19 01:24:00
8:53 PM,21.0,18.0,88,29.91,1.0,SE,6.9,-,0.02,Snow,Light Snow,140,2014-01-19 01:53:00
9:04 PM,21.0,18.0,88,29.87,1.2,SE,6.9,-,0.01,Snow,Light Snow,140,2014-01-19 02:04:00
9:28 PM,21.0,18.0,88,29.86,2.5,SE,8.1,-,0.01,Snow,Light Snow,130,2014-01-19 02:28:00
9:53 PM,21.0,17.1,85,29.89,2.5,SE,9.2,-,0.01,Snow,Light Snow,130,2014-01-19 02:53:00
10:04 PM,21.0,18.0,88,29.84,2.0,SE,8.1,-,0.00,Snow,Light Snow,140,2014-01-19 03:04:00
10:16 PM,21.0,18.0,88,29.84,1.5,SE,9.2,-,0.00,Snow,Light Snow,140,2014-01-19 03:16:00
10:30 PM,21.0,18.0,88,29.83,1.8,SE,8.1,-,0.00,Snow,Light Snow,140,2014-01-19 03:30:00
10:39 PM,21.0,18.0,88,29.83,2.0,SE,8.1,-,0.00,Snow,Light Snow,140,2014-01-19 03:39:00
10:44 PM,21.0,18.0,88,29.82,3.0,SE,9.2,-,0.00,Snow,Light Snow,130,2014-01-19 03:44:00
10:53 PM,21.0,18.0,88,29.86,4.0,SE,8.1,-,0.00,Snow,Light Snow,140,2014-01-19 03:53:00
11:36 PM,21.9,18.0,85,29.80,2.5,SE,8.1,-,0.00,Snow,Light Snow,140,2014-01-19 04:36:00
11:53 PM,21.9,18.0,85,29.83,3.0,SE,6.9,-,0.00,Snow,Light Snow,140,2014-01-19 04:53:00